sensor_id;sensor_type;location;lat;lon;timestamp;P1;durP1;ratioP1;P2;durP2;ratioP2
17214;SDS011;8723;51.502;6.918;2023-07-13T00:00:41;5.10;;;1.77;;
17214;SDS011;8723;51.502;6.918;2023-07-13T00:03:09;3.85;;;1.70;;
17214;SDS011;8723;51.502;6.918;2023-07-13T00:05:40;5.65;;;1.98;;
17214;SDS011;8723;51.502;6.918;2023-07-13T00:08:07;4.68;;;2.05;;
17214;SDS011;8723;51.502;6.918;2023-07-13T00:10:38;5.07;;;1.97;;
17214;SDS011;8723;51.502;6.918;2023-07-13T00:13:06;4.97;;;2.17;;
17214;SDS011;8723;51.502;6.918;2023-07-13T00:15:33;4.80;;;2.03;;
17214;SDS011;8723;51.502;6.918;2023-07-13T00:18:01;7.20;;;1.88;;
17214;SDS011;8723;51.502;6.918;2023-07-13T00:20:27;4.97;;;1.75;;
17214;SDS011;8723;51.502;6.918;2023-07-13T00:22:56;6.03;;;2.00;;
17214;SDS011;8723;51.502;6.918;2023-07-13T00:25:23;6.50;;;1.90;;
17214;SDS011;8723;51.502;6.918;2023-07-13T00:27:53;4.63;;;1.90;;
17214;SDS011;8723;51.502;6.918;2023-07-13T00:30:21;5.07;;;1.88;;
17214;SDS011;8723;51.502;6.918;2023-07-13T00:32:49;3.85;;;1.70;;
17214;SDS011;8723;51.502;6.918;2023-07-13T00:35:16;4.38;;;1.70;;
17214;SDS011;8723;51.502;6.918;2023-07-13T00:37:43;4.63;;;1.95;;
17214;SDS011;8723;51.502;6.918;2023-07-13T00:40:12;5.18;;;1.63;;
17214;SDS011;8723;51.502;6.918;2023-07-13T00:42:39;3.40;;;1.77;;
17214;SDS011;8723;51.502;6.918;2023-07-13T00:46:08;3.95;;;1.70;;
17214;SDS011;8723;51.502;6.918;2023-07-13T00:48:16;3.47;;;1.63;;
17214;SDS011;8723;51.502;6.918;2023-07-13T00:50:46;3.30;;;1.60;;
17214;SDS011;8723;51.502;6.918;2023-07-13T00:53:17;5.32;;;1.63;;
17214;SDS011;8723;51.502;6.918;2023-07-13T00:55:44;4.05;;;1.77;;
17214;SDS011;8723;51.502;6.918;2023-07-13T00:58:12;4.15;;;1.70;;
17214;SDS011;8723;51.502;6.918;2023-07-13T01:00:40;3.75;;;1.67;;
17214;SDS011;8723;51.502;6.918;2023-07-13T01:03:07;4.85;;;1.83;;
17214;SDS011;8723;51.502;6.918;2023-07-13T01:05:36;2.50;;;1.77;;
17214;SDS011;8723;51.502;6.918;2023-07-13T01:08:04;5.28;;;1.60;;
17214;SDS011;8723;51.502;6.918;2023-07-13T01:10:37;4.05;;;1.92;;
17214;SDS011;8723;51.502;6.918;2023-07-13T01:13:04;5.38;;;2.00;;
17214;SDS011;8723;51.502;6.918;2023-07-13T01:15:33;4.60;;;1.90;;
17214;SDS011;8723;51.502;6.918;2023-07-13T01:18:02;4.97;;;1.90;;
17214;SDS011;8723;51.502;6.918;2023-07-13T01:20:30;4.55;;;1.80;;
17214;SDS011;8723;51.502;6.918;2023-07-13T01:23:04;4.67;;;1.60;;
17214;SDS011;8723;51.502;6.918;2023-07-13T01:25:31;3.38;;;1.52;;
17214;SDS011;8723;51.502;6.918;2023-07-13T01:27:59;3.75;;;1.85;;
17214;SDS011;8723;51.502;6.918;2023-07-13T01:30:26;4.93;;;2.03;;
17214;SDS011;8723;51.502;6.918;2023-07-13T01:32:54;5.80;;;2.28;;
17214;SDS011;8723;51.502;6.918;2023-07-13T01:35:20;4.83;;;1.63;;
17214;SDS011;8723;51.502;6.918;2023-07-13T01:37:47;4.57;;;1.85;;
17214;SDS011;8723;51.502;6.918;2023-07-13T01:40:16;3.25;;;1.60;;
17214;SDS011;8723;51.502;6.918;2023-07-13T01:42:43;4.18;;;1.73;;
17214;SDS011;8723;51.502;6.918;2023-07-13T01:45:12;3.70;;;1.70;;
17214;SDS011;8723;51.502;6.918;2023-07-13T01:47:40;3.80;;;1.70;;
17214;SDS011;8723;51.502;6.918;2023-07-13T01:50:10;1.90;;;1.67;;
17214;SDS011;8723;51.502;6.918;2023-07-13T01:52:40;4.20;;;1.75;;
17214;SDS011;8723;51.502;6.918;2023-07-13T01:55:10;5.00;;;2.03;;
17214;SDS011;8723;51.502;6.918;2023-07-13T01:57:41;3.50;;;1.70;;
17214;SDS011;8723;51.502;6.918;2023-07-13T02:00:13;4.82;;;2.08;;
17214;SDS011;8723;51.502;6.918;2023-07-13T02:02:43;3.47;;;1.75;;
17214;SDS011;8723;51.502;6.918;2023-07-13T02:05:14;4.93;;;1.98;;
17214;SDS011;8723;51.502;6.918;2023-07-13T02:07:45;4.68;;;1.90;;
17214;SDS011;8723;51.502;6.918;2023-07-13T02:10:14;4.10;;;2.00;;
17214;SDS011;8723;51.502;6.918;2023-07-13T02:12:43;5.67;;;1.90;;
17214;SDS011;8723;51.502;6.918;2023-07-13T02:15:12;4.57;;;2.10;;
17214;SDS011;8723;51.502;6.918;2023-07-13T02:17:42;5.13;;;1.90;;
17214;SDS011;8723;51.502;6.918;2023-07-13T02:20:13;4.82;;;2.00;;
17214;SDS011;8723;51.502;6.918;2023-07-13T02:22:42;6.32;;;1.88;;
17214;SDS011;8723;51.502;6.918;2023-07-13T02:25:12;4.68;;;2.10;;
17214;SDS011;8723;51.502;6.918;2023-07-13T02:27:45;4.80;;;1.70;;
17214;SDS011;8723;51.502;6.918;2023-07-13T02:30:15;3.97;;;1.92;;
17214;SDS011;8723;51.502;6.918;2023-07-13T02:32:43;4.78;;;1.95;;
17214;SDS011;8723;51.502;6.918;2023-07-13T02:35:13;4.82;;;1.70;;
17214;SDS011;8723;51.502;6.918;2023-07-13T02:37:40;4.13;;;1.75;;
17214;SDS011;8723;51.502;6.918;2023-07-13T02:40:07;3.42;;;1.85;;
17214;SDS011;8723;51.502;6.918;2023-07-13T02:42:35;4.40;;;2.00;;
17214;SDS011;8723;51.502;6.918;2023-07-13T02:45:03;3.47;;;1.88;;
17214;SDS011;8723;51.502;6.918;2023-07-13T02:47:31;5.00;;;1.98;;
17214;SDS011;8723;51.502;6.918;2023-07-13T02:49:58;4.10;;;1.80;;
17214;SDS011;8723;51.502;6.918;2023-07-13T02:52:26;4.28;;;1.83;;
17214;SDS011;8723;51.502;6.918;2023-07-13T02:54:53;4.68;;;2.20;;
17214;SDS011;8723;51.502;6.918;2023-07-13T02:57:20;3.90;;;2.00;;
17214;SDS011;8723;51.502;6.918;2023-07-13T02:59:47;4.90;;;2.13;;
17214;SDS011;8723;51.502;6.918;2023-07-13T03:02:16;4.70;;;1.95;;
17214;SDS011;8723;51.502;6.918;2023-07-13T03:04:44;3.88;;;1.90;;
17214;SDS011;8723;51.502;6.918;2023-07-13T03:07:14;4.10;;;1.65;;
17214;SDS011;8723;51.502;6.918;2023-07-13T03:09:42;4.50;;;1.95;;
17214;SDS011;8723;51.502;6.918;2023-07-13T03:12:13;3.95;;;1.85;;
17214;SDS011;8723;51.502;6.918;2023-07-13T03:14:42;3.90;;;2.03;;
17214;SDS011;8723;51.502;6.918;2023-07-13T03:17:09;5.10;;;2.28;;
17214;SDS011;8723;51.502;6.918;2023-07-13T03:19:37;4.38;;;1.90;;
17214;SDS011;8723;51.502;6.918;2023-07-13T03:22:04;6.00;;;2.33;;
17214;SDS011;8723;51.502;6.918;2023-07-13T03:24:32;3.40;;;2.10;;
17214;SDS011;8723;51.502;6.918;2023-07-13T03:27:00;4.55;;;2.05;;
17214;SDS011;8723;51.502;6.918;2023-07-13T03:29:27;3.80;;;2.10;;
17214;SDS011;8723;51.502;6.918;2023-07-13T03:31:54;4.75;;;2.00;;
17214;SDS011;8723;51.502;6.918;2023-07-13T03:34:21;5.03;;;2.25;;
17214;SDS011;8723;51.502;6.918;2023-07-13T03:36:49;5.53;;;2.15;;
17214;SDS011;8723;51.502;6.918;2023-07-13T03:39:16;4.25;;;2.08;;
17214;SDS011;8723;51.502;6.918;2023-07-13T03:41:43;3.40;;;1.73;;
17214;SDS011;8723;51.502;6.918;2023-07-13T03:44:11;3.22;;;1.90;;
17214;SDS011;8723;51.502;6.918;2023-07-13T03:46:37;4.95;;;1.95;;
17214;SDS011;8723;51.502;6.918;2023-07-13T03:49:05;3.22;;;1.98;;
17214;SDS011;8723;51.502;6.918;2023-07-13T03:51:32;5.28;;;1.85;;
17214;SDS011;8723;51.502;6.918;2023-07-13T03:54:00;3.22;;;1.60;;
17214;SDS011;8723;51.502;6.918;2023-07-13T03:56:28;2.55;;;1.60;;
17214;SDS011;8723;51.502;6.918;2023-07-13T03:58:58;3.28;;;1.70;;
17214;SDS011;8723;51.502;6.918;2023-07-13T04:01:25;3.53;;;1.88;;
17214;SDS011;8723;51.502;6.918;2023-07-13T04:03:52;6.32;;;1.98;;
17214;SDS011;8723;51.502;6.918;2023-07-13T04:06:19;3.45;;;1.90;;
17214;SDS011;8723;51.502;6.918;2023-07-13T04:08:49;2.95;;;1.75;;
17214;SDS011;8723;51.502;6.918;2023-07-13T04:11:19;3.72;;;1.77;;
17214;SDS011;8723;51.502;6.918;2023-07-13T04:13:47;5.15;;;1.92;;
17214;SDS011;8723;51.502;6.918;2023-07-13T04:16:15;4.35;;;1.88;;
17214;SDS011;8723;51.502;6.918;2023-07-13T04:18:43;5.28;;;1.90;;
17214;SDS011;8723;51.502;6.918;2023-07-13T04:21:10;4.85;;;2.08;;
17214;SDS011;8723;51.502;6.918;2023-07-13T04:23:37;5.68;;;2.10;;
17214;SDS011;8723;51.502;6.918;2023-07-13T04:26:05;3.30;;;1.70;;
17214;SDS011;8723;51.502;6.918;2023-07-13T04:28:33;6.60;;;2.00;;
17214;SDS011;8723;51.502;6.918;2023-07-13T04:31:00;5.35;;;2.28;;
17214;SDS011;8723;51.502;6.918;2023-07-13T04:33:27;4.20;;;2.05;;
17214;SDS011;8723;51.502;6.918;2023-07-13T04:35:54;4.40;;;2.10;;
17214;SDS011;8723;51.502;6.918;2023-07-13T04:38:23;3.67;;;1.80;;
17214;SDS011;8723;51.502;6.918;2023-07-13T04:40:52;3.55;;;2.10;;
17214;SDS011;8723;51.502;6.918;2023-07-13T04:43:21;5.97;;;2.38;;
17214;SDS011;8723;51.502;6.918;2023-07-13T04:45:49;5.40;;;1.88;;
17214;SDS011;8723;51.502;6.918;2023-07-13T04:48:17;5.00;;;2.10;;
17214;SDS011;8723;51.502;6.918;2023-07-13T04:50:43;6.47;;;2.33;;
17214;SDS011;8723;51.502;6.918;2023-07-13T04:53:11;4.35;;;2.30;;
17214;SDS011;8723;51.502;6.918;2023-07-13T04:55:38;5.90;;;2.10;;
17214;SDS011;8723;51.502;6.918;2023-07-13T04:58:06;4.80;;;2.30;;
17214;SDS011;8723;51.502;6.918;2023-07-13T05:00:33;4.32;;;2.20;;
17214;SDS011;8723;51.502;6.918;2023-07-13T05:03:02;5.80;;;2.28;;
17214;SDS011;8723;51.502;6.918;2023-07-13T05:05:29;4.80;;;2.22;;
17214;SDS011;8723;51.502;6.918;2023-07-13T05:07:56;5.47;;;2.20;;
17214;SDS011;8723;51.502;6.918;2023-07-13T05:10:23;4.97;;;2.45;;
17214;SDS011;8723;51.502;6.918;2023-07-13T05:12:50;5.05;;;2.42;;
17214;SDS011;8723;51.502;6.918;2023-07-13T05:15:17;5.03;;;2.33;;
17214;SDS011;8723;51.502;6.918;2023-07-13T05:17:46;6.38;;;2.85;;
17214;SDS011;8723;51.502;6.918;2023-07-13T05:20:15;7.55;;;2.60;;
17214;SDS011;8723;51.502;6.918;2023-07-13T05:22:43;7.20;;;2.57;;
17214;SDS011;8723;51.502;6.918;2023-07-13T05:25:11;4.10;;;2.70;;
17214;SDS011;8723;51.502;6.918;2023-07-13T05:27:38;6.80;;;2.70;;
17214;SDS011;8723;51.502;6.918;2023-07-13T05:30:06;7.22;;;2.60;;
17214;SDS011;8723;51.502;6.918;2023-07-13T05:32:35;5.20;;;2.42;;
17214;SDS011;8723;51.502;6.918;2023-07-13T05:35:02;5.00;;;2.67;;
17214;SDS011;8723;51.502;6.918;2023-07-13T05:37:31;5.97;;;2.90;;
17214;SDS011;8723;51.502;6.918;2023-07-13T05:39:58;6.47;;;2.90;;
17214;SDS011;8723;51.502;6.918;2023-07-13T05:42:25;6.22;;;2.72;;
17214;SDS011;8723;51.502;6.918;2023-07-13T05:44:52;6.78;;;2.67;;
17214;SDS011;8723;51.502;6.918;2023-07-13T05:47:19;7.28;;;2.97;;
17214;SDS011;8723;51.502;6.918;2023-07-13T05:49:45;6.68;;;2.75;;
17214;SDS011;8723;51.502;6.918;2023-07-13T05:52:12;6.78;;;2.70;;
17214;SDS011;8723;51.502;6.918;2023-07-13T05:54:41;5.88;;;2.50;;
17214;SDS011;8723;51.502;6.918;2023-07-13T05:57:07;4.72;;;2.67;;
17214;SDS011;8723;51.502;6.918;2023-07-13T05:59:35;7.70;;;2.75;;
17214;SDS011;8723;51.502;6.918;2023-07-13T06:02:02;8.27;;;3.30;;
17214;SDS011;8723;51.502;6.918;2023-07-13T06:04:29;6.55;;;2.83;;
17214;SDS011;8723;51.502;6.918;2023-07-13T06:06:56;6.50;;;2.93;;
17214;SDS011;8723;51.502;6.918;2023-07-13T06:09:23;6.30;;;2.97;;
17214;SDS011;8723;51.502;6.918;2023-07-13T06:11:51;7.43;;;3.10;;
17214;SDS011;8723;51.502;6.918;2023-07-13T06:14:18;7.18;;;3.38;;
17214;SDS011;8723;51.502;6.918;2023-07-13T06:16:45;8.15;;;3.00;;
17214;SDS011;8723;51.502;6.918;2023-07-13T06:19:12;7.53;;;3.33;;
17214;SDS011;8723;51.502;6.918;2023-07-13T06:21:39;6.80;;;2.90;;
17214;SDS011;8723;51.502;6.918;2023-07-13T06:24:06;8.17;;;3.17;;
17214;SDS011;8723;51.502;6.918;2023-07-13T06:26:33;7.25;;;3.25;;
17214;SDS011;8723;51.502;6.918;2023-07-13T06:29:01;5.78;;;2.90;;
17214;SDS011;8723;51.502;6.918;2023-07-13T06:31:28;7.63;;;3.40;;
17214;SDS011;8723;51.502;6.918;2023-07-13T06:33:54;6.63;;;3.15;;
17214;SDS011;8723;51.502;6.918;2023-07-13T06:36:21;8.20;;;3.08;;
17214;SDS011;8723;51.502;6.918;2023-07-13T06:38:48;5.57;;;2.78;;
17214;SDS011;8723;51.502;6.918;2023-07-13T06:41:15;8.50;;;3.45;;
17214;SDS011;8723;51.502;6.918;2023-07-13T06:43:42;5.90;;;3.03;;
17214;SDS011;8723;51.502;6.918;2023-07-13T06:46:11;6.85;;;3.10;;
17214;SDS011;8723;51.502;6.918;2023-07-13T06:48:37;5.83;;;3.20;;
17214;SDS011;8723;51.502;6.918;2023-07-13T06:51:04;5.65;;;3.00;;
17214;SDS011;8723;51.502;6.918;2023-07-13T06:53:31;7.35;;;3.05;;
17214;SDS011;8723;51.502;6.918;2023-07-13T06:55:58;8.88;;;3.08;;
17214;SDS011;8723;51.502;6.918;2023-07-13T06:58:25;8.40;;;3.17;;
17214;SDS011;8723;51.502;6.918;2023-07-13T07:00:52;6.95;;;3.60;;
17214;SDS011;8723;51.502;6.918;2023-07-13T07:03:20;7.75;;;3.55;;
17214;SDS011;8723;51.502;6.918;2023-07-13T07:05:48;6.68;;;3.63;;
17214;SDS011;8723;51.502;6.918;2023-07-13T07:08:15;6.85;;;3.50;;
17214;SDS011;8723;51.502;6.918;2023-07-13T07:10:42;5.63;;;3.45;;
17214;SDS011;8723;51.502;6.918;2023-07-13T07:13:10;6.78;;;3.28;;
17214;SDS011;8723;51.502;6.918;2023-07-13T07:15:37;6.70;;;3.60;;
17214;SDS011;8723;51.502;6.918;2023-07-13T07:18:04;6.95;;;3.33;;
17214;SDS011;8723;51.502;6.918;2023-07-13T07:20:32;8.50;;;3.72;;
17214;SDS011;8723;51.502;6.918;2023-07-13T07:22:59;8.50;;;3.40;;
17214;SDS011;8723;51.502;6.918;2023-07-13T07:25:26;8.25;;;3.58;;
17214;SDS011;8723;51.502;6.918;2023-07-13T07:27:56;6.60;;;3.20;;
17214;SDS011;8723;51.502;6.918;2023-07-13T07:30:23;6.77;;;3.70;;
17214;SDS011;8723;51.502;6.918;2023-07-13T07:32:50;5.28;;;3.10;;
17214;SDS011;8723;51.502;6.918;2023-07-13T07:35:17;9.55;;;3.55;;
17214;SDS011;8723;51.502;6.918;2023-07-13T07:37:46;7.20;;;3.25;;
17214;SDS011;8723;51.502;6.918;2023-07-13T07:40:12;6.63;;;3.42;;
17214;SDS011;8723;51.502;6.918;2023-07-13T07:42:39;5.57;;;3.58;;
17214;SDS011;8723;51.502;6.918;2023-07-13T07:45:06;7.40;;;3.53;;
17214;SDS011;8723;51.502;6.918;2023-07-13T07:47:36;7.22;;;3.60;;
17214;SDS011;8723;51.502;6.918;2023-07-13T07:50:03;7.47;;;3.50;;
17214;SDS011;8723;51.502;6.918;2023-07-13T07:52:30;6.03;;;3.22;;
17214;SDS011;8723;51.502;6.918;2023-07-13T07:54:59;6.30;;;3.07;;
17214;SDS011;8723;51.502;6.918;2023-07-13T07:57:26;6.33;;;3.23;;
17214;SDS011;8723;51.502;6.918;2023-07-13T07:59:52;6.32;;;3.20;;
17214;SDS011;8723;51.502;6.918;2023-07-13T08:02:19;5.05;;;3.30;;
17214;SDS011;8723;51.502;6.918;2023-07-13T08:04:46;7.03;;;4.38;;
17214;SDS011;8723;51.502;6.918;2023-07-13T08:07:13;7.10;;;3.97;;
17214;SDS011;8723;51.502;6.918;2023-07-13T08:09:40;7.07;;;3.90;;
17214;SDS011;8723;51.502;6.918;2023-07-13T08:12:08;5.75;;;3.50;;
17214;SDS011;8723;51.502;6.918;2023-07-13T08:14:35;6.95;;;3.67;;
17214;SDS011;8723;51.502;6.918;2023-07-13T08:17:03;4.82;;;2.95;;
17214;SDS011;8723;51.502;6.918;2023-07-13T08:19:30;5.95;;;3.13;;
17214;SDS011;8723;51.502;6.918;2023-07-13T08:21:57;4.90;;;3.17;;
17214;SDS011;8723;51.502;6.918;2023-07-13T08:24:24;6.20;;;3.60;;
17214;SDS011;8723;51.502;6.918;2023-07-13T08:26:51;5.43;;;3.30;;
17214;SDS011;8723;51.502;6.918;2023-07-13T08:29:20;6.70;;;3.38;;
17214;SDS011;8723;51.502;6.918;2023-07-13T08:31:47;6.80;;;3.40;;
17214;SDS011;8723;51.502;6.918;2023-07-13T08:34:14;7.30;;;3.90;;
17214;SDS011;8723;51.502;6.918;2023-07-13T08:36:41;5.90;;;3.22;;
17214;SDS011;8723;51.502;6.918;2023-07-13T08:39:07;8.38;;;3.35;;
17214;SDS011;8723;51.502;6.918;2023-07-13T08:41:34;6.70;;;3.50;;
17214;SDS011;8723;51.502;6.918;2023-07-13T08:44:03;5.57;;;3.17;;
17214;SDS011;8723;51.502;6.918;2023-07-13T08:46:36;5.90;;;3.60;;
17214;SDS011;8723;51.502;6.918;2023-07-13T08:49:05;6.13;;;3.80;;
17214;SDS011;8723;51.502;6.918;2023-07-13T08:51:39;5.50;;;3.20;;
17214;SDS011;8723;51.502;6.918;2023-07-13T08:54:12;6.45;;;3.30;;
17214;SDS011;8723;51.502;6.918;2023-07-13T08:56:46;5.38;;;3.08;;
17214;SDS011;8723;51.502;6.918;2023-07-13T08:59:15;5.93;;;3.10;;
17214;SDS011;8723;51.502;6.918;2023-07-13T09:01:51;5.85;;;3.75;;
17214;SDS011;8723;51.502;6.918;2023-07-13T09:04:32;5.38;;;3.47;;
17214;SDS011;8723;51.502;6.918;2023-07-13T09:07:05;6.13;;;3.90;;
17214;SDS011;8723;51.502;6.918;2023-07-13T09:09:44;7.80;;;3.60;;
17214;SDS011;8723;51.502;6.918;2023-07-13T09:12:19;5.32;;;3.35;;
17214;SDS011;8723;51.502;6.918;2023-07-13T09:14:53;4.57;;;3.35;;
17214;SDS011;8723;51.502;6.918;2023-07-13T09:17:25;4.77;;;2.97;;
17214;SDS011;8723;51.502;6.918;2023-07-13T09:19:55;5.77;;;3.03;;
17214;SDS011;8723;51.502;6.918;2023-07-13T09:22:25;7.60;;;2.88;;
17214;SDS011;8723;51.502;6.918;2023-07-13T09:24:55;5.78;;;3.25;;
17214;SDS011;8723;51.502;6.918;2023-07-13T09:27:29;5.82;;;3.00;;
17214;SDS011;8723;51.502;6.918;2023-07-13T09:30:03;4.77;;;3.00;;
17214;SDS011;8723;51.502;6.918;2023-07-13T09:32:47;5.50;;;3.15;;
17214;SDS011;8723;51.502;6.918;2023-07-13T09:35:18;5.88;;;2.78;;
17214;SDS011;8723;51.502;6.918;2023-07-13T09:37:47;6.38;;;3.00;;
17214;SDS011;8723;51.502;6.918;2023-07-13T09:40:17;5.15;;;2.67;;
17214;SDS011;8723;51.502;6.918;2023-07-13T09:43:02;6.22;;;2.88;;
17214;SDS011;8723;51.502;6.918;2023-07-13T09:45:32;5.75;;;3.10;;
17214;SDS011;8723;51.502;6.918;2023-07-13T09:48:05;3.83;;;2.67;;
17214;SDS011;8723;51.502;6.918;2023-07-13T09:50:34;4.43;;;2.80;;
17214;SDS011;8723;51.502;6.918;2023-07-13T09:53:01;6.18;;;3.00;;
17214;SDS011;8723;51.502;6.918;2023-07-13T09:55:29;4.93;;;2.72;;
17214;SDS011;8723;51.502;6.918;2023-07-13T09:58:02;4.82;;;2.83;;
17214;SDS011;8723;51.502;6.918;2023-07-13T10:00:30;3.35;;;2.47;;
17214;SDS011;8723;51.502;6.918;2023-07-13T10:02:58;4.80;;;2.72;;
17214;SDS011;8723;51.502;6.918;2023-07-13T10:05:28;5.75;;;2.72;;
17214;SDS011;8723;51.502;6.918;2023-07-13T10:08:03;4.43;;;2.90;;
17214;SDS011;8723;51.502;6.918;2023-07-13T10:10:32;5.63;;;2.80;;
17214;SDS011;8723;51.502;6.918;2023-07-13T10:13:01;4.85;;;2.63;;
17214;SDS011;8723;51.502;6.918;2023-07-13T10:15:29;5.38;;;2.83;;
17214;SDS011;8723;51.502;6.918;2023-07-13T10:17:56;6.85;;;3.30;;
17214;SDS011;8723;51.502;6.918;2023-07-13T10:20:24;5.75;;;2.80;;
17214;SDS011;8723;51.502;6.918;2023-07-13T10:22:54;5.60;;;2.70;;
17214;SDS011;8723;51.502;6.918;2023-07-13T10:25:26;5.60;;;2.80;;
17214;SDS011;8723;51.502;6.918;2023-07-13T10:27:58;4.68;;;2.50;;
17214;SDS011;8723;51.502;6.918;2023-07-13T10:30:31;4.00;;;2.47;;
17214;SDS011;8723;51.502;6.918;2023-07-13T10:33:02;4.70;;;2.35;;
17214;SDS011;8723;51.502;6.918;2023-07-13T10:35:34;4.55;;;2.33;;
17214;SDS011;8723;51.502;6.918;2023-07-13T10:38:04;5.68;;;2.80;;
17214;SDS011;8723;51.502;6.918;2023-07-13T10:40:36;5.28;;;2.55;;
17214;SDS011;8723;51.502;6.918;2023-07-13T10:43:06;4.72;;;2.53;;
17214;SDS011;8723;51.502;6.918;2023-07-13T10:45:40;3.97;;;2.40;;
17214;SDS011;8723;51.502;6.918;2023-07-13T10:48:09;4.60;;;2.40;;
17214;SDS011;8723;51.502;6.918;2023-07-13T10:50:40;4.60;;;2.40;;
17214;SDS011;8723;51.502;6.918;2023-07-13T10:53:19;5.40;;;2.42;;
17214;SDS011;8723;51.502;6.918;2023-07-13T10:55:55;5.18;;;2.30;;
17214;SDS011;8723;51.502;6.918;2023-07-13T10:58:28;4.43;;;2.33;;
17214;SDS011;8723;51.502;6.918;2023-07-13T11:01:01;4.60;;;2.42;;
17214;SDS011;8723;51.502;6.918;2023-07-13T11:03:33;3.95;;;2.20;;
17214;SDS011;8723;51.502;6.918;2023-07-13T11:06:05;3.50;;;2.35;;
17214;SDS011;8723;51.502;6.918;2023-07-13T11:08:37;3.33;;;2.25;;
17214;SDS011;8723;51.502;6.918;2023-07-13T11:14:01;3.50;;;2.40;;
17214;SDS011;8723;51.502;6.918;2023-07-13T11:16:37;5.40;;;2.43;;
17214;SDS011;8723;51.502;6.918;2023-07-13T11:19:27;3.78;;;2.20;;
17214;SDS011;8723;51.502;6.918;2023-07-13T11:22:13;3.38;;;1.88;;
17214;SDS011;8723;51.502;6.918;2023-07-13T11:24:51;3.40;;;2.20;;
17214;SDS011;8723;51.502;6.918;2023-07-13T11:30:21;5.13;;;2.30;;
17214;SDS011;8723;51.502;6.918;2023-07-13T11:33:09;4.47;;;2.20;;
17214;SDS011;8723;51.502;6.918;2023-07-13T11:35:49;3.53;;;2.03;;
17214;SDS011;8723;51.502;6.918;2023-07-13T11:38:27;4.05;;;1.90;;
17214;SDS011;8723;51.502;6.918;2023-07-13T11:41:00;2.80;;;1.73;;
17214;SDS011;8723;51.502;6.918;2023-07-13T11:43:30;4.35;;;1.95;;
17214;SDS011;8723;51.502;6.918;2023-07-13T11:45:58;3.28;;;1.73;;
17214;SDS011;8723;51.502;6.918;2023-07-13T11:48:38;4.57;;;2.23;;
17214;SDS011;8723;51.502;6.918;2023-07-13T11:51:05;6.68;;;2.33;;
17214;SDS011;8723;51.502;6.918;2023-07-13T11:53:38;3.30;;;1.70;;
17214;SDS011;8723;51.502;6.918;2023-07-13T11:56:08;3.40;;;1.77;;
17214;SDS011;8723;51.502;6.918;2023-07-13T11:58:35;3.70;;;1.80;;
17214;SDS011;8723;51.502;6.918;2023-07-13T12:01:02;4.73;;;2.00;;
17214;SDS011;8723;51.502;6.918;2023-07-13T12:03:31;3.15;;;1.90;;
17214;SDS011;8723;51.502;6.918;2023-07-13T12:06:01;1.92;;;1.52;;
17214;SDS011;8723;51.502;6.918;2023-07-13T12:08:30;4.78;;;1.83;;
17214;SDS011;8723;51.502;6.918;2023-07-13T12:11:04;4.18;;;1.92;;
17214;SDS011;8723;51.502;6.918;2023-07-13T12:13:37;3.53;;;1.67;;
17214;SDS011;8723;51.502;6.918;2023-07-13T12:16:11;3.60;;;1.55;;
17214;SDS011;8723;51.502;6.918;2023-07-13T12:18:42;3.55;;;1.85;;
17214;SDS011;8723;51.502;6.918;2023-07-13T12:21:13;3.57;;;1.90;;
17214;SDS011;8723;51.502;6.918;2023-07-13T12:23:44;3.00;;;1.75;;
17214;SDS011;8723;51.502;6.918;2023-07-13T12:26:13;2.97;;;1.80;;
17214;SDS011;8723;51.502;6.918;2023-07-13T12:28:45;3.55;;;1.88;;
17214;SDS011;8723;51.502;6.918;2023-07-13T12:31:22;2.13;;;1.48;;
17214;SDS011;8723;51.502;6.918;2023-07-13T12:33:56;2.17;;;1.60;;
17214;SDS011;8723;51.502;6.918;2023-07-13T12:36:24;3.50;;;1.83;;
17214;SDS011;8723;51.502;6.918;2023-07-13T12:38:54;4.75;;;1.90;;
17214;SDS011;8723;51.502;6.918;2023-07-13T12:41:21;1.97;;;1.73;;
17214;SDS011;8723;51.502;6.918;2023-07-13T12:43:50;4.32;;;1.90;;
17214;SDS011;8723;51.502;6.918;2023-07-13T12:46:19;4.40;;;1.90;;
17214;SDS011;8723;51.502;6.918;2023-07-13T12:48:48;2.83;;;1.70;;
17214;SDS011;8723;51.502;6.918;2023-07-13T12:51:17;3.20;;;1.88;;
17214;SDS011;8723;51.502;6.918;2023-07-13T12:53:49;4.68;;;2.08;;
17214;SDS011;8723;51.502;6.918;2023-07-13T12:56:19;3.25;;;1.70;;
17214;SDS011;8723;51.502;6.918;2023-07-13T12:58:49;3.23;;;1.80;;
17214;SDS011;8723;51.502;6.918;2023-07-13T13:01:21;3.55;;;1.85;;
17214;SDS011;8723;51.502;6.918;2023-07-13T13:03:52;3.42;;;1.90;;
17214;SDS011;8723;51.502;6.918;2023-07-13T13:06:21;3.10;;;1.83;;
17214;SDS011;8723;51.502;6.918;2023-07-13T13:08:50;3.05;;;1.90;;
17214;SDS011;8723;51.502;6.918;2023-07-13T13:11:18;4.28;;;2.30;;
17214;SDS011;8723;51.502;6.918;2023-07-13T13:13:48;3.67;;;2.10;;
17214;SDS011;8723;51.502;6.918;2023-07-13T13:16:19;3.45;;;2.10;;
17214;SDS011;8723;51.502;6.918;2023-07-13T13:18:47;3.60;;;2.20;;
17214;SDS011;8723;51.502;6.918;2023-07-13T13:21:15;3.55;;;2.13;;
17214;SDS011;8723;51.502;6.918;2023-07-13T13:23:42;4.20;;;2.15;;
17214;SDS011;8723;51.502;6.918;2023-07-13T13:26:10;2.50;;;2.10;;
17214;SDS011;8723;51.502;6.918;2023-07-13T13:28:37;2.95;;;2.00;;
17214;SDS011;8723;51.502;6.918;2023-07-13T13:31:05;3.13;;;1.98;;
17214;SDS011;8723;51.502;6.918;2023-07-13T13:33:39;3.10;;;1.95;;
17214;SDS011;8723;51.502;6.918;2023-07-13T13:36:17;4.55;;;2.20;;
17214;SDS011;8723;51.502;6.918;2023-07-13T13:38:45;4.30;;;2.50;;
17214;SDS011;8723;51.502;6.918;2023-07-13T13:41:13;3.88;;;2.38;;
17214;SDS011;8723;51.502;6.918;2023-07-13T13:43:41;2.43;;;2.20;;
17214;SDS011;8723;51.502;6.918;2023-07-13T13:46:13;3.58;;;2.13;;
17214;SDS011;8723;51.502;6.918;2023-07-13T13:48:43;2.53;;;1.95;;
17214;SDS011;8723;51.502;6.918;2023-07-13T13:51:15;4.18;;;2.38;;
17214;SDS011;8723;51.502;6.918;2023-07-13T13:53:44;2.92;;;2.05;;
17214;SDS011;8723;51.502;6.918;2023-07-13T13:56:12;3.08;;;2.22;;
17214;SDS011;8723;51.502;6.918;2023-07-13T13:58:39;4.33;;;2.37;;
17214;SDS011;8723;51.502;6.918;2023-07-13T14:01:10;3.15;;;2.08;;
17214;SDS011;8723;51.502;6.918;2023-07-13T14:03:39;4.72;;;2.13;;
17214;SDS011;8723;51.502;6.918;2023-07-13T14:06:08;4.85;;;2.60;;
17214;SDS011;8723;51.502;6.918;2023-07-13T14:08:38;3.92;;;2.60;;
17214;SDS011;8723;51.502;6.918;2023-07-13T14:11:05;2.95;;;2.53;;
17214;SDS011;8723;51.502;6.918;2023-07-13T14:13:35;5.82;;;2.78;;
17214;SDS011;8723;51.502;6.918;2023-07-13T14:16:08;4.85;;;2.92;;
17214;SDS011;8723;51.502;6.918;2023-07-13T14:18:37;3.67;;;2.53;;
17214;SDS011;8723;51.502;6.918;2023-07-13T14:21:13;5.07;;;2.30;;
17214;SDS011;8723;51.502;6.918;2023-07-13T14:23:42;5.22;;;2.95;;
17214;SDS011;8723;51.502;6.918;2023-07-13T14:26:11;5.17;;;3.17;;
17214;SDS011;8723;51.502;6.918;2023-07-13T14:28:41;3.27;;;2.43;;
17214;SDS011;8723;51.502;6.918;2023-07-13T14:31:11;3.38;;;2.80;;
17214;SDS011;8723;51.502;6.918;2023-07-13T14:33:39;2.63;;;2.40;;
17214;SDS011;8723;51.502;6.918;2023-07-13T14:36:12;3.83;;;2.58;;
17214;SDS011;8723;51.502;6.918;2023-07-13T14:38:47;3.90;;;2.58;;
17214;SDS011;8723;51.502;6.918;2023-07-13T14:41:15;3.17;;;2.50;;
17214;SDS011;8723;51.502;6.918;2023-07-13T14:43:42;3.33;;;2.38;;
17214;SDS011;8723;51.502;6.918;2023-07-13T14:46:11;3.72;;;2.60;;
17214;SDS011;8723;51.502;6.918;2023-07-13T14:48:50;2.90;;;2.50;;
17214;SDS011;8723;51.502;6.918;2023-07-13T14:51:19;3.60;;;2.38;;
17214;SDS011;8723;51.502;6.918;2023-07-13T14:53:46;2.53;;;2.05;;
17214;SDS011;8723;51.502;6.918;2023-07-13T14:56:13;4.17;;;2.50;;
17214;SDS011;8723;51.502;6.918;2023-07-13T14:58:42;4.43;;;2.60;;
17214;SDS011;8723;51.502;6.918;2023-07-13T15:01:09;4.72;;;2.10;;
17214;SDS011;8723;51.502;6.918;2023-07-13T15:03:40;3.05;;;2.00;;
17214;SDS011;8723;51.502;6.918;2023-07-13T15:06:09;3.67;;;2.30;;
17214;SDS011;8723;51.502;6.918;2023-07-13T15:08:41;4.30;;;2.40;;
17214;SDS011;8723;51.502;6.918;2023-07-13T15:11:08;3.08;;;2.10;;
17214;SDS011;8723;51.502;6.918;2023-07-13T15:13:37;3.42;;;2.10;;
17214;SDS011;8723;51.502;6.918;2023-07-13T15:16:04;3.33;;;2.50;;
17214;SDS011;8723;51.502;6.918;2023-07-13T15:18:38;2.85;;;2.40;;